sensor_id;sensor_type;location;lat;lon;timestamp;P1;durP1;ratioP1;P2;durP2;ratioP2
75216;SDS011;63800;51.972;5.682;2023-08-07T00:00:55;6.30;;;2.00;;
75216;SDS011;63800;51.972;5.682;2023-08-07T00:03:20;3.47;;;1.80;;
75216;SDS011;63800;51.972;5.682;2023-08-07T00:05:46;5.95;;;1.58;;
75216;SDS011;63800;51.972;5.682;2023-08-07T00:08:12;5.15;;;1.80;;
75216;SDS011;63800;51.972;5.682;2023-08-07T00:10:37;6.57;;;2.05;;
75216;SDS011;63800;51.972;5.682;2023-08-07T00:13:03;4.15;;;1.85;;
75216;SDS011;63800;51.972;5.682;2023-08-07T00:15:29;5.70;;;1.98;;
75216;SDS011;63800;51.972;5.682;2023-08-07T00:17:54;3.53;;;2.03;;
75216;SDS011;63800;51.972;5.682;2023-08-07T00:20:20;6.28;;;2.42;;
75216;SDS011;63800;51.972;5.682;2023-08-07T00:22:45;5.43;;;1.80;;
75216;SDS011;63800;51.972;5.682;2023-08-07T00:25:11;6.30;;;2.30;;
75216;SDS011;63800;51.972;5.682;2023-08-07T00:27:36;6.32;;;1.80;;
75216;SDS011;63800;51.972;5.682;2023-08-07T00:30:02;5.53;;;2.40;;
75216;SDS011;63800;51.972;5.682;2023-08-07T00:32:27;5.10;;;2.22;;
75216;SDS011;63800;51.972;5.682;2023-08-07T00:34:53;8.73;;;3.95;;
75216;SDS011;63800;51.972;5.682;2023-08-07T00:37:18;6.85;;;2.20;;
75216;SDS011;63800;51.972;5.682;2023-08-07T00:39:44;5.97;;;2.20;;
75216;SDS011;63800;51.972;5.682;2023-08-07T00:42:09;9.25;;;2.60;;
75216;SDS011;63800;51.972;5.682;2023-08-07T00:44:34;11.85;;;3.13;;
75216;SDS011;63800;51.972;5.682;2023-08-07T00:47:00;6.50;;;2.67;;
75216;SDS011;63800;51.972;5.682;2023-08-07T00:49:25;7.13;;;2.97;;
75216;SDS011;63800;51.972;5.682;2023-08-07T00:51:52;9.05;;;2.60;;
75216;SDS011;63800;51.972;5.682;2023-08-07T00:54:18;9.23;;;3.20;;
75216;SDS011;63800;51.972;5.682;2023-08-07T00:56:44;8.30;;;3.22;;
75216;SDS011;63800;51.972;5.682;2023-08-07T00:59:10;8.13;;;3.20;;
75216;SDS011;63800;51.972;5.682;2023-08-07T01:01:37;7.78;;;3.55;;
75216;SDS011;63800;51.972;5.682;2023-08-07T01:04:03;10.90;;;2.97;;
75216;SDS011;63800;51.972;5.682;2023-08-07T01:06:28;8.13;;;2.80;;
75216;SDS011;63800;51.972;5.682;2023-08-07T01:08:54;6.55;;;2.60;;
75216;SDS011;63800;51.972;5.682;2023-08-07T01:14:32;8.63;;;2.83;;
75216;SDS011;63800;51.972;5.682;2023-08-07T01:19:34;9.82;;;2.53;;
75216;SDS011;63800;51.972;5.682;2023-08-07T01:22:03;6.22;;;2.20;;
75216;SDS011;63800;51.972;5.682;2023-08-07T01:24:36;6.18;;;2.50;;
75216;SDS011;63800;51.972;5.682;2023-08-07T01:27:51;8.65;;;2.30;;
75216;SDS011;63800;51.972;5.682;2023-08-07T01:30:20;4.90;;;2.00;;
75216;SDS011;63800;51.972;5.682;2023-08-07T01:33:14;5.63;;;2.50;;
75216;SDS011;63800;51.972;5.682;2023-08-07T01:35:46;5.95;;;2.85;;
75216;SDS011;63800;51.972;5.682;2023-08-07T01:38:14;11.63;;;3.53;;
75216;SDS011;63800;51.972;5.682;2023-08-07T01:40:40;7.47;;;3.22;;
75216;SDS011;63800;51.972;5.682;2023-08-07T01:43:07;10.75;;;2.97;;
75216;SDS011;63800;51.972;5.682;2023-08-07T01:45:33;7.47;;;3.20;;
75216;SDS011;63800;51.972;5.682;2023-08-07T01:47:58;8.88;;;3.00;;
75216;SDS011;63800;51.972;5.682;2023-08-07T01:50:24;13.82;;;3.60;;
75216;SDS011;63800;51.972;5.682;2023-08-07T01:52:50;7.28;;;3.20;;
75216;SDS011;63800;51.972;5.682;2023-08-07T01:55:16;8.80;;;2.90;;
75216;SDS011;63800;51.972;5.682;2023-08-07T01:57:42;8.77;;;2.67;;
75216;SDS011;63800;51.972;5.682;2023-08-07T02:00:08;11.55;;;3.03;;
75216;SDS011;63800;51.972;5.682;2023-08-07T02:02:35;8.57;;;3.00;;
75216;SDS011;63800;51.972;5.682;2023-08-07T02:05:01;8.82;;;2.95;;
75216;SDS011;63800;51.972;5.682;2023-08-07T02:07:27;6.85;;;2.90;;
75216;SDS011;63800;51.972;5.682;2023-08-07T02:09:52;8.82;;;3.15;;
75216;SDS011;63800;51.972;5.682;2023-08-07T02:12:17;7.65;;;2.65;;
75216;SDS011;63800;51.972;5.682;2023-08-07T02:14:43;6.68;;;2.40;;
75216;SDS011;63800;51.972;5.682;2023-08-07T02:17:08;7.65;;;2.95;;
75216;SDS011;63800;51.972;5.682;2023-08-07T02:19:34;11.73;;;2.80;;
75216;SDS011;63800;51.972;5.682;2023-08-07T02:21:59;6.68;;;2.55;;
75216;SDS011;63800;51.972;5.682;2023-08-07T02:24:25;6.57;;;2.70;;
75216;SDS011;63800;51.972;5.682;2023-08-07T02:26:50;6.03;;;2.70;;
75216;SDS011;63800;51.972;5.682;2023-08-07T02:29:16;10.60;;;2.85;;
75216;SDS011;63800;51.972;5.682;2023-08-07T02:31:41;10.63;;;2.90;;
75216;SDS011;63800;51.972;5.682;2023-08-07T02:34:06;7.93;;;2.55;;
75216;SDS011;63800;51.972;5.682;2023-08-07T02:36:32;6.68;;;2.80;;
75216;SDS011;63800;51.972;5.682;2023-08-07T02:38:57;7.63;;;2.85;;
75216;SDS011;63800;51.972;5.682;2023-08-07T02:41:23;7.32;;;2.53;;
75216;SDS011;63800;51.972;5.682;2023-08-07T02:43:48;9.48;;;2.72;;
75216;SDS011;63800;51.972;5.682;2023-08-07T02:46:14;8.23;;;3.00;;
75216;SDS011;63800;51.972;5.682;2023-08-07T02:48:39;3.75;;;2.38;;
75216;SDS011;63800;51.972;5.682;2023-08-07T02:51:05;9.05;;;2.50;;
75216;SDS011;63800;51.972;5.682;2023-08-07T02:53:31;10.20;;;3.38;;
75216;SDS011;63800;51.972;5.682;2023-08-07T02:55:56;6.57;;;2.50;;
75216;SDS011;63800;51.972;5.682;2023-08-07T02:58:22;8.30;;;2.60;;
75216;SDS011;63800;51.972;5.682;2023-08-07T03:00:47;8.55;;;3.08;;
75216;SDS011;63800;51.972;5.682;2023-08-07T03:03:12;7.10;;;2.88;;
75216;SDS011;63800;51.972;5.682;2023-08-07T03:05:38;9.18;;;2.40;;
75216;SDS011;63800;51.972;5.682;2023-08-07T03:08:03;9.63;;;2.42;;
75216;SDS011;63800;51.972;5.682;2023-08-07T03:10:29;7.25;;;2.38;;
75216;SDS011;63800;51.972;5.682;2023-08-07T03:12:54;5.32;;;2.25;;
75216;SDS011;63800;51.972;5.682;2023-08-07T03:15:20;8.20;;;2.85;;
75216;SDS011;63800;51.972;5.682;2023-08-07T03:17:45;7.45;;;2.70;;
75216;SDS011;63800;51.972;5.682;2023-08-07T03:20:11;5.80;;;2.38;;
75216;SDS011;63800;51.972;5.682;2023-08-07T03:22:36;7.70;;;3.55;;
75216;SDS011;63800;51.972;5.682;2023-08-07T03:25:02;6.47;;;2.70;;
75216;SDS011;63800;51.972;5.682;2023-08-07T03:27:27;9.75;;;2.72;;
75216;SDS011;63800;51.972;5.682;2023-08-07T03:29:53;5.18;;;2.50;;
75216;SDS011;63800;51.972;5.682;2023-08-07T03:32:18;5.45;;;2.55;;
75216;SDS011;63800;51.972;5.682;2023-08-07T03:34:44;6.68;;;3.17;;
75216;SDS011;63800;51.972;5.682;2023-08-07T03:37:09;9.57;;;3.05;;
75216;SDS011;63800;51.972;5.682;2023-08-07T03:39:35;8.90;;;2.85;;
75216;SDS011;63800;51.972;5.682;2023-08-07T03:42:00;7.00;;;2.88;;
75216;SDS011;63800;51.972;5.682;2023-08-07T03:44:25;6.18;;;2.50;;
75216;SDS011;63800;51.972;5.682;2023-08-07T03:46:51;5.80;;;2.40;;
75216;SDS011;63800;51.972;5.682;2023-08-07T03:49:16;5.07;;;2.50;;
75216;SDS011;63800;51.972;5.682;2023-08-07T03:51:42;8.38;;;3.00;;
75216;SDS011;63800;51.972;5.682;2023-08-07T03:54:07;6.18;;;2.22;;
75216;SDS011;63800;51.972;5.682;2023-08-07T03:56:33;6.18;;;2.00;;
75216;SDS011;63800;51.972;5.682;2023-08-07T03:59:01;5.97;;;2.60;;
75216;SDS011;63800;51.972;5.682;2023-08-07T04:01:27;6.88;;;2.95;;
75216;SDS011;63800;51.972;5.682;2023-08-07T04:03:53;6.35;;;2.40;;
75216;SDS011;63800;51.972;5.682;2023-08-07T04:06:19;6.07;;;2.83;;
75216;SDS011;63800;51.972;5.682;2023-08-07T04:08:46;5.78;;;2.20;;
75216;SDS011;63800;51.972;5.682;2023-08-07T04:11:11;6.63;;;2.35;;
75216;SDS011;63800;51.972;5.682;2023-08-07T04:13:37;5.80;;;2.22;;
75216;SDS011;63800;51.972;5.682;2023-08-07T04:16:02;6.88;;;2.47;;
75216;SDS011;63800;51.972;5.682;2023-08-07T04:18:29;5.10;;;2.33;;
75216;SDS011;63800;51.972;5.682;2023-08-07T04:20:55;4.80;;;2.45;;
75216;SDS011;63800;51.972;5.682;2023-08-07T04:23:21;7.65;;;2.80;;
75216;SDS011;63800;51.972;5.682;2023-08-07T04:25:47;8.55;;;2.83;;
75216;SDS011;63800;51.972;5.682;2023-08-07T04:28:13;7.13;;;2.50;;
75216;SDS011;63800;51.972;5.682;2023-08-07T04:30:40;7.93;;;2.70;;
75216;SDS011;63800;51.972;5.682;2023-08-07T04:33:05;6.50;;;2.67;;
75216;SDS011;63800;51.972;5.682;2023-08-07T04:35:31;6.03;;;2.70;;
75216;SDS011;63800;51.972;5.682;2023-08-07T04:37:56;7.47;;;3.72;;
75216;SDS011;63800;51.972;5.682;2023-08-07T04:40:22;10.02;;;3.15;;
75216;SDS011;63800;51.972;5.682;2023-08-07T04:42:48;6.45;;;3.80;;
75216;SDS011;63800;51.972;5.682;2023-08-07T04:45:14;7.28;;;2.75;;
75216;SDS011;63800;51.972;5.682;2023-08-07T04:47:40;6.70;;;2.63;;
75216;SDS011;63800;51.972;5.682;2023-08-07T04:50:06;7.20;;;2.67;;
75216;SDS011;63800;51.972;5.682;2023-08-07T04:52:33;6.57;;;2.85;;
75216;SDS011;63800;51.972;5.682;2023-08-07T04:54:58;6.10;;;3.50;;
75216;SDS011;63800;51.972;5.682;2023-08-07T04:57:24;8.65;;;3.03;;
75216;SDS011;63800;51.972;5.682;2023-08-07T04:59:49;7.35;;;2.97;;
75216;SDS011;63800;51.972;5.682;2023-08-07T05:02:15;8.65;;;3.28;;
75216;SDS011;63800;51.972;5.682;2023-08-07T05:04:41;7.32;;;3.13;;
75216;SDS011;63800;51.972;5.682;2023-08-07T05:07:06;8.80;;;3.58;;
75216;SDS011;63800;51.972;5.682;2023-08-07T05:09:32;8.00;;;3.28;;
75216;SDS011;63800;51.972;5.682;2023-08-07T05:11:57;7.13;;;2.97;;
75216;SDS011;63800;51.972;5.682;2023-08-07T05:14:22;12.05;;;3.65;;
75216;SDS011;63800;51.972;5.682;2023-08-07T05:16:48;7.88;;;3.30;;
75216;SDS011;63800;51.972;5.682;2023-08-07T05:19:13;10.65;;;3.78;;
75216;SDS011;63800;51.972;5.682;2023-08-07T05:21:39;8.90;;;2.83;;
75216;SDS011;63800;51.972;5.682;2023-08-07T05:24:04;8.77;;;3.45;;
75216;SDS011;63800;51.972;5.682;2023-08-07T05:26:30;10.13;;;3.63;;
75216;SDS011;63800;51.972;5.682;2023-08-07T05:28:55;9.00;;;4.05;;
75216;SDS011;63800;51.972;5.682;2023-08-07T05:31:23;9.77;;;3.63;;
75216;SDS011;63800;51.972;5.682;2023-08-07T05:33:49;5.75;;;2.83;;
75216;SDS011;63800;51.972;5.682;2023-08-07T05:36:14;8.20;;;3.30;;
75216;SDS011;63800;51.972;5.682;2023-08-07T05:38:40;9.40;;;3.25;;
75216;SDS011;63800;51.972;5.682;2023-08-07T05:41:05;8.45;;;2.80;;
75216;SDS011;63800;51.972;5.682;2023-08-07T05:43:31;9.18;;;3.60;;
75216;SDS011;63800;51.972;5.682;2023-08-07T05:45:57;8.60;;;2.85;;
75216;SDS011;63800;51.972;5.682;2023-08-07T05:48:22;8.52;;;3.78;;
75216;SDS011;63800;51.972;5.682;2023-08-07T05:50:48;4.90;;;2.75;;
75216;SDS011;63800;51.972;5.682;2023-08-07T05:53:13;6.75;;;2.40;;
75216;SDS011;63800;51.972;5.682;2023-08-07T05:55:39;6.38;;;2.22;;
75216;SDS011;63800;51.972;5.682;2023-08-07T05:58:06;4.28;;;2.70;;
75216;SDS011;63800;51.972;5.682;2023-08-07T06:00:32;6.53;;;2.38;;
75216;SDS011;63800;51.972;5.682;2023-08-07T06:02:57;7.97;;;2.67;;
75216;SDS011;63800;51.972;5.682;2023-08-07T06:05:23;5.82;;;2.67;;
75216;SDS011;63800;51.972;5.682;2023-08-07T06:07:49;4.65;;;2.28;;
75216;SDS011;63800;51.972;5.682;2023-08-07T06:10:15;6.03;;;2.92;;
75216;SDS011;63800;51.972;5.682;2023-08-07T06:12:40;9.50;;;3.17;;
75216;SDS011;63800;51.972;5.682;2023-08-07T06:15:06;6.88;;;2.72;;
75216;SDS011;63800;51.972;5.682;2023-08-07T06:17:31;6.30;;;3.05;;
75216;SDS011;63800;51.972;5.682;2023-08-07T06:19:57;8.52;;;2.58;;
75216;SDS011;63800;51.972;5.682;2023-08-07T06:22:22;6.38;;;2.58;;
75216;SDS011;63800;51.972;5.682;2023-08-07T06:24:48;7.65;;;2.92;;
75216;SDS011;63800;51.972;5.682;2023-08-07T06:27:14;6.10;;;2.60;;
75216;SDS011;63800;51.972;5.682;2023-08-07T06:29:39;6.07;;;2.63;;
75216;SDS011;63800;51.972;5.682;2023-08-07T06:32:05;6.43;;;3.30;;
75216;SDS011;63800;51.972;5.682;2023-08-07T06:34:31;9.02;;;3.38;;
75216;SDS011;63800;51.972;5.682;2023-08-07T06:36:56;7.28;;;2.90;;
75216;SDS011;63800;51.972;5.682;2023-08-07T06:39:22;6.18;;;2.90;;
75216;SDS011;63800;51.972;5.682;2023-08-07T06:41:47;9.98;;;3.05;;
75216;SDS011;63800;51.972;5.682;2023-08-07T06:44:13;8.52;;;3.17;;
75216;SDS011;63800;51.972;5.682;2023-08-07T06:46:38;8.10;;;3.13;;
75216;SDS011;63800;51.972;5.682;2023-08-07T06:49:03;8.88;;;4.15;;
75216;SDS011;63800;51.972;5.682;2023-08-07T06:51:29;7.72;;;3.03;;
75216;SDS011;63800;51.972;5.682;2023-08-07T06:53:55;8.57;;;3.30;;
75216;SDS011;63800;51.972;5.682;2023-08-07T06:56:20;8.60;;;3.42;;
75216;SDS011;63800;51.972;5.682;2023-08-07T06:58:46;8.60;;;3.00;;
75216;SDS011;63800;51.972;5.682;2023-08-07T07:01:12;7.85;;;3.03;;
75216;SDS011;63800;51.972;5.682;2023-08-07T07:03:37;10.05;;;3.53;;
75216;SDS011;63800;51.972;5.682;2023-08-07T07:06:03;9.48;;;3.50;;
75216;SDS011;63800;51.972;5.682;2023-08-07T07:08:28;8.80;;;3.60;;
75216;SDS011;63800;51.972;5.682;2023-08-07T07:10:53;9.05;;;2.83;;
75216;SDS011;63800;51.972;5.682;2023-08-07T07:13:19;6.75;;;3.40;;
75216;SDS011;63800;51.972;5.682;2023-08-07T07:15:45;9.05;;;3.35;;
75216;SDS011;63800;51.972;5.682;2023-08-07T07:18:10;6.32;;;3.67;;
75216;SDS011;63800;51.972;5.682;2023-08-07T07:20:36;8.95;;;3.60;;
75216;SDS011;63800;51.972;5.682;2023-08-07T07:23:01;8.13;;;3.60;;
75216;SDS011;63800;51.972;5.682;2023-08-07T07:25:26;9.98;;;3.40;;
75216;SDS011;63800;51.972;5.682;2023-08-07T07:27:52;12.70;;;3.75;;
75216;SDS011;63800;51.972;5.682;2023-08-07T07:30:17;10.25;;;3.72;;
75216;SDS011;63800;51.972;5.682;2023-08-07T07:32:43;11.48;;;3.70;;
75216;SDS011;63800;51.972;5.682;2023-08-07T07:35:08;9.15;;;4.13;;
75216;SDS011;63800;51.972;5.682;2023-08-07T07:37:34;12.52;;;4.22;;
75216;SDS011;63800;51.972;5.682;2023-08-07T07:39:59;12.95;;;3.80;;
75216;SDS011;63800;51.972;5.682;2023-08-07T07:42:25;12.48;;;4.03;;
75216;SDS011;63800;51.972;5.682;2023-08-07T07:44:50;9.15;;;3.78;;
75216;SDS011;63800;51.972;5.682;2023-08-07T07:47:16;7.32;;;3.63;;
75216;SDS011;63800;51.972;5.682;2023-08-07T07:49:44;12.02;;;3.60;;
75216;SDS011;63800;51.972;5.682;2023-08-07T07:54:40;7.85;;;3.67;;
75216;SDS011;63800;51.972;5.682;2023-08-07T07:57:05;9.50;;;3.40;;
75216;SDS011;63800;51.972;5.682;2023-08-07T07:59:31;5.25;;;3.35;;
75216;SDS011;63800;51.972;5.682;2023-08-07T08:01:57;6.50;;;3.40;;
75216;SDS011;63800;51.972;5.682;2023-08-07T08:04:22;11.18;;;4.22;;
75216;SDS011;63800;51.972;5.682;2023-08-07T08:06:48;9.52;;;3.80;;
75216;SDS011;63800;51.972;5.682;2023-08-07T08:09:13;8.80;;;3.33;;
75216;SDS011;63800;51.972;5.682;2023-08-07T08:11:39;6.80;;;3.90;;
75216;SDS011;63800;51.972;5.682;2023-08-07T08:14:04;7.50;;;3.70;;
75216;SDS011;63800;51.972;5.682;2023-08-07T08:16:30;8.02;;;3.65;;
75216;SDS011;63800;51.972;5.682;2023-08-07T08:18:55;7.28;;;3.47;;
75216;SDS011;63800;51.972;5.682;2023-08-07T08:21:20;10.88;;;3.92;;
75216;SDS011;63800;51.972;5.682;2023-08-07T08:23:46;10.18;;;4.50;;
75216;SDS011;63800;51.972;5.682;2023-08-07T08:26:11;10.88;;;4.32;;
75216;SDS011;63800;51.972;5.682;2023-08-07T08:28:37;8.95;;;3.75;;
75216;SDS011;63800;51.972;5.682;2023-08-07T08:31:03;8.18;;;3.70;;
75216;SDS011;63800;51.972;5.682;2023-08-07T08:33:28;8.88;;;3.95;;
75216;SDS011;63800;51.972;5.682;2023-08-07T08:35:54;22.38;;;4.50;;
75216;SDS011;63800;51.972;5.682;2023-08-07T08:38:19;8.60;;;4.45;;
75216;SDS011;63800;51.972;5.682;2023-08-07T08:40:46;8.77;;;4.15;;
75216;SDS011;63800;51.972;5.682;2023-08-07T08:43:13;10.88;;;4.07;;
75216;SDS011;63800;51.972;5.682;2023-08-07T08:45:39;7.15;;;3.90;;
75216;SDS011;63800;51.972;5.682;2023-08-07T08:48:07;11.52;;;4.93;;
75216;SDS011;63800;51.972;5.682;2023-08-07T08:50:33;11.65;;;4.10;;
75216;SDS011;63800;51.972;5.682;2023-08-07T08:53:00;11.00;;;4.55;;
75216;SDS011;63800;51.972;5.682;2023-08-07T08:55:27;9.98;;;4.22;;
75216;SDS011;63800;51.972;5.682;2023-08-07T08:57:54;9.90;;;3.20;;
75216;SDS011;63800;51.972;5.682;2023-08-07T09:00:20;9.45;;;3.65;;
75216;SDS011;63800;51.972;5.682;2023-08-07T09:02:50;8.13;;;3.28;;
75216;SDS011;63800;51.972;5.682;2023-08-07T09:05:17;8.02;;;3.50;;
75216;SDS011;63800;51.972;5.682;2023-08-07T09:07:45;10.77;;;4.13;;
75216;SDS011;63800;51.972;5.682;2023-08-07T09:10:11;8.88;;;3.88;;
75216;SDS011;63800;51.972;5.682;2023-08-07T09:12:40;9.60;;;3.58;;
75216;SDS011;63800;51.972;5.682;2023-08-07T09:15:08;16.55;;;3.95;;
75216;SDS011;63800;51.972;5.682;2023-08-07T09:17:38;10.77;;;4.10;;
75216;SDS011;63800;51.972;5.682;2023-08-07T09:20:05;8.45;;;3.72;;
75216;SDS011;63800;51.972;5.682;2023-08-07T09:22:39;8.85;;;3.05;;
75216;SDS011;63800;51.972;5.682;2023-08-07T09:25:06;7.75;;;3.33;;
75216;SDS011;63800;51.972;5.682;2023-08-07T09:27:32;8.23;;;3.13;;
75216;SDS011;63800;51.972;5.682;2023-08-07T09:29:58;8.02;;;3.00;;
75216;SDS011;63800;51.972;5.682;2023-08-07T09:32:24;6.10;;;3.13;;
75216;SDS011;63800;51.972;5.682;2023-08-07T09:34:50;7.50;;;3.63;;
75216;SDS011;63800;51.972;5.682;2023-08-07T09:37:18;7.70;;;3.30;;
75216;SDS011;63800;51.972;5.682;2023-08-07T09:39:44;7.65;;;3.30;;
75216;SDS011;63800;51.972;5.682;2023-08-07T09:42:14;9.02;;;3.22;;
75216;SDS011;63800;51.972;5.682;2023-08-07T09:44:43;8.65;;;3.58;;
75216;SDS011;63800;51.972;5.682;2023-08-07T09:47:15;7.60;;;2.92;;
75216;SDS011;63800;51.972;5.682;2023-08-07T09:49:41;8.02;;;3.08;;
75216;SDS011;63800;51.972;5.682;2023-08-07T09:52:08;6.45;;;2.75;;
75216;SDS011;63800;51.972;5.682;2023-08-07T09:54:36;12.85;;;3.88;;
75216;SDS011;63800;51.972;5.682;2023-08-07T09:57:02;7.35;;;3.65;;
75216;SDS011;63800;51.972;5.682;2023-08-07T09:59:28;4.88;;;3.33;;
75216;SDS011;63800;51.972;5.682;2023-08-07T10:01:54;12.52;;;3.67;;
75216;SDS011;63800;51.972;5.682;2023-08-07T10:04:21;7.55;;;3.10;;
75216;SDS011;63800;51.972;5.682;2023-08-07T10:06:47;10.20;;;2.90;;
75216;SDS011;63800;51.972;5.682;2023-08-07T10:09:13;6.85;;;3.03;;
75216;SDS011;63800;51.972;5.682;2023-08-07T10:11:39;8.65;;;2.85;;
75216;SDS011;63800;51.972;5.682;2023-08-07T10:14:05;8.30;;;2.90;;
75216;SDS011;63800;51.972;5.682;2023-08-07T10:16:31;6.47;;;2.80;;
75216;SDS011;63800;51.972;5.682;2023-08-07T10:18:57;7.85;;;3.05;;
75216;SDS011;63800;51.972;5.682;2023-08-07T10:21:23;5.18;;;2.90;;
75216;SDS011;63800;51.972;5.682;2023-08-07T10:23:51;7.65;;;3.38;;
75216;SDS011;63800;51.972;5.682;2023-08-07T10:26:19;9.90;;;3.20;;
75216;SDS011;63800;51.972;5.682;2023-08-07T10:28:46;7.20;;;2.60;;
75216;SDS011;63800;51.972;5.682;2023-08-07T10:31:16;9.43;;;3.67;;
75216;SDS011;63800;51.972;5.682;2023-08-07T10:33:42;7.70;;;2.92;;
75216;SDS011;63800;51.972;5.682;2023-08-07T10:36:09;5.38;;;2.65;;
75216;SDS011;63800;51.972;5.682;2023-08-07T10:38:35;4.88;;;2.60;;
75216;SDS011;63800;51.972;5.682;2023-08-07T10:43:30;4.95;;;2.50;;
75216;SDS011;63800;51.972;5.682;2023-08-07T10:46:04;8.35;;;2.78;;
75216;SDS011;63800;51.972;5.682;2023-08-07T10:48:37;5.53;;;3.15;;
75216;SDS011;63800;51.972;5.682;2023-08-07T10:51:12;4.03;;;2.40;;
75216;SDS011;63800;51.972;5.682;2023-08-07T10:53:43;5.80;;;2.50;;
75216;SDS011;63800;51.972;5.682;2023-08-07T10:56:17;7.50;;;2.85;;
75216;SDS011;63800;51.972;5.682;2023-08-07T10:58:51;5.47;;;2.95;;
75216;SDS011;63800;51.972;5.682;2023-08-07T11:03:52;5.53;;;3.03;;
75216;SDS011;63800;51.972;5.682;2023-08-07T11:09:00;6.25;;;2.72;;
75216;SDS011;63800;51.972;5.682;2023-08-07T11:11:28;5.53;;;2.72;;
75216;SDS011;63800;51.972;5.682;2023-08-07T11:13:54;7.13;;;2.60;;
75216;SDS011;63800;51.972;5.682;2023-08-07T11:16:20;5.53;;;2.78;;
75216;SDS011;63800;51.972;5.682;2023-08-07T11:18:51;9.07;;;2.83;;
75216;SDS011;63800;51.972;5.682;2023-08-07T11:21:16;7.07;;;2.58;;
75216;SDS011;63800;51.972;5.682;2023-08-07T11:23:43;5.35;;;3.08;;
75216;SDS011;63800;51.972;5.682;2023-08-07T11:26:11;6.57;;;2.63;;
75216;SDS011;63800;51.972;5.682;2023-08-07T11:28:37;6.93;;;2.95;;
75216;SDS011;63800;51.972;5.682;2023-08-07T11:31:02;6.30;;;2.80;;
75216;SDS011;63800;51.972;5.682;2023-08-07T11:33:28;5.97;;;2.80;;
75216;SDS011;63800;51.972;5.682;2023-08-07T11:35:54;6.00;;;2.90;;
75216;SDS011;63800;51.972;5.682;2023-08-07T11:38:37;5.30;;;2.58;;
75216;SDS011;63800;51.972;5.682;2023-08-07T11:41:05;8.05;;;3.08;;
75216;SDS011;63800;51.972;5.682;2023-08-07T11:43:32;7.03;;;3.05;;
75216;SDS011;63800;51.972;5.682;2023-08-07T11:46:00;5.63;;;2.35;;
75216;SDS011;63800;51.972;5.682;2023-08-07T11:48:27;6.78;;;3.30;;
75216;SDS011;63800;51.972;5.682;2023-08-07T11:50:54;5.75;;;2.63;;
75216;SDS011;63800;51.972;5.682;2023-08-07T11:53:20;5.63;;;3.15;;
75216;SDS011;63800;51.972;5.682;2023-08-07T11:55:59;7.18;;;3.00;;
75216;SDS011;63800;51.972;5.682;2023-08-07T11:58:33;3.35;;;2.13;;
75216;SDS011;63800;51.972;5.682;2023-08-07T12:01:19;5.35;;;2.20;;
75216;SDS011;63800;51.972;5.682;2023-08-07T12:06:19;5.75;;;2.38;;
75216;SDS011;63800;51.972;5.682;2023-08-07T12:08:47;7.15;;;2.55;;
75216;SDS011;63800;51.972;5.682;2023-08-07T12:11:14;5.47;;;2.20;;
75216;SDS011;63800;51.972;5.682;2023-08-07T12:13:40;8.30;;;2.58;;
75216;SDS011;63800;51.972;5.682;2023-08-07T12:16:07;6.60;;;2.47;;
75216;SDS011;63800;51.972;5.682;2023-08-07T12:18:34;7.28;;;2.60;;
75216;SDS011;63800;51.972;5.682;2023-08-07T12:21:02;5.93;;;2.72;;
75216;SDS011;63800;51.972;5.682;2023-08-07T12:23:34;6.15;;;3.13;;
75216;SDS011;63800;51.972;5.682;2023-08-07T12:26:02;8.20;;;2.83;;
75216;SDS011;63800;51.972;5.682;2023-08-07T12:28:28;6.30;;;2.80;;
75216;SDS011;63800;51.972;5.682;2023-08-07T12:30:53;6.03;;;2.75;;
75216;SDS011;63800;51.972;5.682;2023-08-07T12:33:19;6.38;;;2.80;;
75216;SDS011;63800;51.972;5.682;2023-08-07T12:35:44;6.65;;;2.90;;
75216;SDS011;63800;51.972;5.682;2023-08-07T12:38:11;5.80;;;2.63;;
75216;SDS011;63800;51.972;5.682;2023-08-07T12:40:39;5.40;;;2.20;;
75216;SDS011;63800;51.972;5.682;2023-08-07T12:43:05;5.35;;;2.90;;
75216;SDS011;63800;51.972;5.682;2023-08-07T12:45:31;5.57;;;2.78;;
75216;SDS011;63800;51.972;5.682;2023-08-07T12:47:57;7.00;;;2.92;;
75216;SDS011;63800;51.972;5.682;2023-08-07T12:50:22;6.32;;;2.67;;
75216;SDS011;63800;51.972;5.682;2023-08-07T12:52:48;6.93;;;2.97;;
75216;SDS011;63800;51.972;5.682;2023-08-07T12:55:13;4.25;;;2.47;;
75216;SDS011;63800;51.972;5.682;2023-08-07T12:57:42;6.90;;;2.55;;
75216;SDS011;63800;51.972;5.682;2023-08-07T13:00:08;6.40;;;3.10;;
75216;SDS011;63800;51.972;5.682;2023-08-07T13:02:38;5.88;;;2.70;;
75216;SDS011;63800;51.972;5.682;2023-08-07T13:05:05;4.32;;;2.47;;
75216;SDS011;63800;51.972;5.682;2023-08-07T13:07:31;4.68;;;2.58;;
75216;SDS011;63800;51.972;5.682;2023-08-07T13:09:56;6.75;;;3.75;;
75216;SDS011;63800;51.972;5.682;2023-08-07T13:12:22;4.93;;;2.47;;
75216;SDS011;63800;51.972;5.682;2023-08-07T13:14:48;4.50;;;2.53;;
75216;SDS011;63800;51.972;5.682;2023-08-07T13:17:13;6.25;;;2.63;;
75216;SDS011;63800;51.972;5.682;2023-08-07T13:19:39;6.32;;;2.55;;
75216;SDS011;63800;51.972;5.682;2023-08-07T13:22:04;5.55;;;2.72;;
75216;SDS011;63800;51.972;5.682;2023-08-07T13:24:30;5.40;;;2.60;;
75216;SDS011;63800;51.972;5.682;2023-08-07T13:26:55;4.70;;;2.30;;
75216;SDS011;63800;51.972;5.682;2023-08-07T13:29:21;4.22;;;2.50;;
75216;SDS011;63800;51.972;5.682;2023-08-07T13:31:46;3.95;;;2.20;;
75216;SDS011;63800;51.972;5.682;2023-08-07T13:34:13;5.25;;;2.30;;
75216;SDS011;63800;51.972;5.682;2023-08-07T13:36:39;4.38;;;2.35;;
75216;SDS011;63800;51.972;5.682;2023-08-07T13:39:04;4.15;;;2.05;;
75216;SDS011;63800;51.972;5.682;2023-08-07T13:41:31;4.68;;;2.38;;
75216;SDS011;63800;51.972;5.682;2023-08-07T13:43:57;5.00;;;2.05;;
75216;SDS011;63800;51.972;5.682;2023-08-07T13:46:22;4.63;;;2.25;;
75216;SDS011;63800;51.972;5.682;2023-08-07T13:48:48;3.65;;;1.92;;
75216;SDS011;63800;51.972;5.682;2023-08-07T13:51:14;3.45;;;2.05;;
75216;SDS011;63800;51.972;5.682;2023-08-07T13:53:39;4.95;;;2.90;;
75216;SDS011;63800;51.972;5.682;2023-08-07T13:56:06;3.00;;;1.88;;
75216;SDS011;63800;51.972;5.682;2023-08-07T13:58:33;3.58;;;2.17;;
75216;SDS011;63800;51.972;5.682;2023-08-07T14:00:59;3.65;;;2.10;;
75216;SDS011;63800;51.972;5.682;2023-08-07T14:03:24;6.47;;;2.20;;
75216;SDS011;63800;51.972;5.682;2023-08-07T14:05:50;6.75;;;1.90;;
75216;SDS011;63800;51.972;5.682;2023-08-07T14:08:15;2.65;;;1.70;;
75216;SDS011;63800;51.972;5.682;2023-08-07T14:10:41;3.20;;;1.80;;
75216;SDS011;63800;51.972;5.682;2023-08-07T14:13:07;2.42;;;1.77;;
75216;SDS011;63800;51.972;5.682;2023-08-07T14:15:33;3.17;;;1.67;;
75216;SDS011;63800;51.972;5.682;2023-08-07T14:17:58;2.95;;;1.88;;
75216;SDS011;63800;51.972;5.682;2023-08-07T14:20:24;2.22;;;1.60;;
75216;SDS011;63800;51.972;5.682;2023-08-07T14:22:50;4.72;;;2.00;;
75216;SDS011;63800;51.972;5.682;2023-08-07T14:25:16;3.75;;;1.60;;
75216;SDS011;63800;51.972;5.682;2023-08-07T14:27:41;3.08;;;1.65;;
75216;SDS011;63800;51.972;5.682;2023-08-07T14:30:07;3.85;;;1.88;;
75216;SDS011;63800;51.972;5.682;2023-08-07T14:32:32;2.55;;;1.75;;
75216;SDS011;63800;51.972;5.682;2023-08-07T14:34:58;3.55;;;1.70;;
75216;SDS011;63800;51.972;5.682;2023-08-07T14:37:23;2.50;;;1.98;;
75216;SDS011;63800;51.972;5.682;2023-08-07T14:39:49;3.20;;;1.60;;
75216;SDS011;63800;51.972;5.682;2023-08-07T14:42:14;3.38;;;1.45;;
75216;SDS011;63800;51.972;5.682;2023-08-07T14:44:40;3.22;;;1.95;;
75216;SDS011;63800;51.972;5.682;2023-08-07T14:47:06;3.95;;;2.10;;
75216;SDS011;63800;51.972;5.682;2023-08-07T14:49:31;2.50;;;1.75;;
75216;SDS011;63800;51.972;5.682;2023-08-07T14:51:57;3.42;;;1.80;;
75216;SDS011;63800;51.972;5.682;2023-08-07T14:54:22;4.38;;;2.05;;
75216;SDS011;63800;51.972;5.682;2023-08-07T14:56:48;3.42;;;1.90;;
75216;SDS011;63800;51.972;5.682;2023-08-07T14:59:14;3.47;;;2.00;;